Time;durP1;ratioP1;P1;durP2;ratioP2;P2;SDS_P1;SDS_P2;PMS_P1;PMS_P2;Temp;Humidity;BMP_temperature;BMP_pressure;BME280_temperature;BME280_humidity;BME280_pressure;Samples;Min_cycle;Max_cycle;Signal;HPM_P1;HPM_P2
2022/03/23 00:01:13;;;;;;;;;;;9.30;65.90;;;;;;5083767;28;19916;-71
2022/03/23 00:03:38;;;;;;;;;;;9.20;65.90;;;;;;5082623;28;19942;-72
2022/03/23 00:06:04;;;;;;;;;;;9.20;66.00;;;;;;5081985;28;19962;-71
2022/03/23 00:08:30;;;;;;;;;;;9.20;66.10;;;;;;5082499;28;19912;-71
2022/03/23 00:10:55;;;;;;;;;;;9.20;66.10;;;;;;5083574;28;19947;-71
2022/03/23 00:13:21;;;;;;;;;;;9.10;66.10;;;;;;5084298;28;20591;-71
2022/03/23 00:15:47;;;;;;;;;;;9.10;66.20;;;;;;5060551;28;20550;-71
2022/03/23 00:18:12;;;;;;;;;;;9.10;66.10;;;;;;5082203;28;19916;-71
2022/03/23 00:20:41;;;;;;;;;;;9.10;66.30;;;;;;5083362;28;20260;-71
2022/03/23 00:23:10;;;;;;;;;;;9.00;66.20;;;;;;5070869;28;20315;-71
2022/03/23 00:25:36;;;;;;;;;;;9.00;66.20;;;;;;5062663;28;20479;-71
2022/03/23 00:28:03;;;;;;;;;;;9.00;66.30;;;;;;5069208;28;19909;-71
2022/03/23 00:30:29;;;;;;;;;;;9.00;66.30;;;;;;5078821;28;19912;-71
2022/03/23 00:32:55;;;;;;;;;;;8.90;66.30;;;;;;5080415;28;19923;-71
2022/03/23 00:35:21;;;;;;;;;;;8.90;66.30;;;;;;5082101;28;19916;-71
2022/03/23 00:37:47;;;;;;;;;;;8.90;66.50;;;;;;5083045;28;20226;-71
2022/03/23 00:40:12;;;;;;;;;;;8.90;66.50;;;;;;5083829;28;19919;-71
2022/03/23 00:42:38;;;;;;;;;;;8.90;66.50;;;;;;5084519;28;19918;-71
2022/03/23 00:45:04;;;;;;;;;;;8.80;66.50;;;;;;5083319;28;20391;-71
2022/03/23 00:47:30;;;;;;;;;;;8.80;66.50;;;;;;5083927;28;19995;-71
2022/03/23 00:49:55;;;;;;;;;;;8.80;66.60;;;;;;5084666;28;20000;-71
2022/03/23 00:52:21;;;;;;;;;;;8.80;66.60;;;;;;5084196;28;19919;-71
2022/03/23 00:54:46;;;;;;;;;;;8.70;66.60;;;;;;5072588;28;19916;-71
2022/03/23 00:57:12;;;;;;;;;;;8.70;66.60;;;;;;5087894;28;20329;-71
2022/03/23 00:59:37;;;;;;;;;;;8.70;66.60;;;;;;5090168;28;19931;-71
2022/03/23 01:02:05;;;;;;;;;;;8.70;66.70;;;;;;5088398;28;19961;-71
2022/03/23 01:04:31;;;;;;;;;;;8.60;66.60;;;;;;5088563;28;19919;-71
2022/03/23 01:06:57;;;;;;;;;;;8.60;66.70;;;;;;5087426;28;19912;-72
2022/03/23 01:09:23;;;;;;;;;;;8.60;66.70;;;;;;5087710;28;19987;-71
2022/03/23 01:11:50;;;;;;;;;;;8.60;66.80;;;;;;5086636;28;19912;-71
2022/03/23 01:14:16;;;;;;;;;;;8.60;66.80;;;;;;5087029;28;19916;-71
2022/03/23 01:16:42;;;;;;;;;;;8.60;66.80;;;;;;5086968;28;20117;-71
2022/03/23 01:19:08;;;;;;;;;;;8.50;66.80;;;;;;5087045;28;19966;-72
2022/03/23 01:21:34;;;;;;;;;;;8.50;66.80;;;;;;5086858;28;19912;-71
2022/03/23 01:23:59;;;;;;;;;;;8.50;66.90;;;;;;5070616;28;20418;-72
2022/03/23 01:26:25;;;;;;;;;;;8.50;67.00;;;;;;5085565;28;19976;-71
2022/03/23 01:28:50;;;;;;;;;;;8.50;67.00;;;;;;5074869;28;20291;-72
2022/03/23 01:31:15;;;;;;;;;;;8.40;66.90;;;;;;5083717;28;19990;-72
2022/03/23 01:33:41;;;;;;;;;;;8.40;67.00;;;;;;5085487;28;19912;-71
2022/03/23 01:36:06;;;;;;;;;;;8.40;67.00;;;;;;5087716;28;20808;-71
2022/03/23 01:38:32;;;;;;;;;;;8.40;67.10;;;;;;5086463;28;20007;-71
2022/03/23 01:40:57;;;;;;;;;;;8.30;67.20;;;;;;5085858;28;19916;-72
2022/03/23 01:43:23;;;;;;;;;;;8.30;67.10;;;;;;5085278;28;19916;-71
2022/03/23 01:45:48;;;;;;;;;;;8.30;67.10;;;;;;5077259;28;19970;-71
2022/03/23 01:48:14;;;;;;;;;;;8.30;67.20;;;;;;5071665;28;20347;-71
2022/03/23 01:50:40;;;;;;;;;;;8.30;67.20;;;;;;5086557;28;20664;-71
2022/03/23 01:53:06;;;;;;;;;;;8.30;67.20;;;;;;5087655;28;19944;-71
2022/03/23 01:55:32;;;;;;;;;;;8.30;67.20;;;;;;5086073;28;19951;-72
2022/03/23 01:57:58;;;;;;;;;;;8.20;67.20;;;;;;5086404;28;19999;-72
2022/03/23 02:00:26;;;;;;;;;;;8.20;67.30;;;;;;5085894;28;19981;-71
2022/03/23 02:02:52;;;;;;;;;;;8.20;67.40;;;;;;5069200;28;19932;-71
2022/03/23 02:05:17;;;;;;;;;;;8.20;67.40;;;;;;5072735;28;20295;-72
2022/03/23 02:07:43;;;;;;;;;;;8.20;67.40;;;;;;5087006;28;19940;-72
2022/03/23 02:10:09;;;;;;;;;;;8.10;67.40;;;;;;5085986;28;20607;-72
2022/03/23 02:12:34;;;;;;;;;;;8.10;67.40;;;;;;5069190;28;19918;-71
2022/03/23 02:15:08;;;;;;;;;;;8.10;67.40;;;;;;5083688;28;20010;-72
2022/03/23 02:17:34;;;;;;;;;;;8.10;67.40;;;;;;5085287;28;19914;-72
2022/03/23 02:20:00;;;;;;;;;;;8.00;67.40;;;;;;5083631;28;19958;-71
2022/03/23 02:22:26;;;;;;;;;;;8.00;67.50;;;;;;5072393;28;19916;-72
2022/03/23 02:24:52;;;;;;;;;;;8.00;67.60;;;;;;5086988;28;19942;-72
2022/03/23 02:27:18;;;;;;;;;;;8.00;67.60;;;;;;5075062;28;19916;-72
2022/03/23 02:29:44;;;;;;;;;;;8.00;67.60;;;;;;5084123;28;19917;-71
2022/03/23 02:32:09;;;;;;;;;;;8.00;67.70;;;;;;5051322;28;19920;-72
2022/03/23 02:34:35;;;;;;;;;;;8.00;67.70;;;;;;5070696;28;19923;-72
2022/03/23 02:37:00;;;;;;;;;;;7.90;67.70;;;;;;5083697;28;19913;-72
2022/03/23 02:39:26;;;;;;;;;;;7.90;67.80;;;;;;5086434;28;19908;-72
2022/03/23 02:41:56;;;;;;;;;;;7.90;67.80;;;;;;5084667;28;19912;-72
2022/03/23 02:44:22;;;;;;;;;;;7.90;67.80;;;;;;5086446;28;19920;-72
2022/03/23 02:46:48;;;;;;;;;;;7.90;67.80;;;;;;5086268;28;20383;-72
2022/03/23 02:49:18;;;;;;;;;;;7.80;67.80;;;;;;5085471;28;19958;-72
2022/03/23 02:51:44;;;;;;;;;;;7.80;67.90;;;;;;5085711;28;19965;-72
2022/03/23 03:02:40;;;;;;;;;;;7.80;67.90;;;;;;5084689;28;19970;-72
2022/03/23 03:05:06;;;;;;;;;;;7.70;67.90;;;;;;5085200;28;19923;-72
2022/03/23 03:08:44;;;;;;;;;;;7.70;68.00;;;;;;5085327;28;20402;-72
2022/03/23 03:10:18;;;;;;;;;;;7.70;68.00;;;;;;5083244;28;20015;-72
2022/03/23 03:12:43;;;;;;;;;;;7.70;68.10;;;;;;5083232;28;20002;-72
2022/03/23 03:15:12;;;;;;;;;;;7.70;68.10;;;;;;5064723;28;19923;-72
2022/03/23 03:17:38;;;;;;;;;;;7.70;68.10;;;;;;5072683;28;19922;-72
2022/03/23 03:20:04;;;;;;;;;;;7.60;68.10;;;;;;5084260;28;19916;-72
2022/03/23 03:22:34;;;;;;;;;;;7.60;68.10;;;;;;5085971;28;19912;-72
2022/03/23 03:24:59;;;;;;;;;;;7.60;68.20;;;;;;5067157;28;19911;-72
2022/03/23 03:27:25;;;;;;;;;;;7.60;68.10;;;;;;5085848;28;19912;-72
2022/03/23 03:29:51;;;;;;;;;;;7.60;68.30;;;;;;5075845;28;20054;-72
2022/03/23 03:35:19;;;;;;;;;;;7.50;68.30;;;;;;5082378;28;19931;-72
2022/03/23 03:37:46;;;;;;;;;;;7.50;68.20;;;;;;5080269;28;20443;-72
2022/03/23 03:40:11;;;;;;;;;;;7.50;68.20;;;;;;5081431;28;19957;-72
2022/03/23 03:42:37;;;;;;;;;;;7.50;68.30;;;;;;5083221;28;19916;-72
2022/03/23 03:45:05;;;;;;;;;;;7.50;68.40;;;;;;5082510;28;19916;-72
2022/03/23 03:47:30;;;;;;;;;;;7.50;68.40;;;;;;5083469;28;20672;-72
2022/03/23 03:49:56;;;;;;;;;;;7.40;68.40;;;;;;5084350;28;19916;-72
2022/03/23 03:52:21;;;;;;;;;;;7.40;68.40;;;;;;5070307;28;19908;-72
2022/03/23 03:54:46;;;;;;;;;;;7.40;68.50;;;;;;5083974;28;20003;-72
2022/03/23 03:57:12;;;;;;;;;;;7.40;68.50;;;;;;5084761;28;20345;-72
2022/03/23 03:59:37;;;;;;;;;;;7.40;68.40;;;;;;5087893;28;19927;-72
2022/03/23 04:02:04;;;;;;;;;;;7.40;68.60;;;;;;5082240;28;19915;-72
2022/03/23 04:04:29;;;;;;;;;;;7.40;68.60;;;;;;5070661;28;20545;-72
2022/03/23 04:06:55;;;;;;;;;;;7.30;68.60;;;;;;5079356;28;19947;-72
2022/03/23 04:09:20;;;;;;;;;;;7.30;68.60;;;;;;5081415;28;19919;-72
2022/03/23 04:11:46;;;;;;;;;;;7.30;68.60;;;;;;5075919;28;19908;-72
2022/03/23 04:14:11;;;;;;;;;;;7.30;69.40;;;;;;5075423;28;20295;-72
2022/03/23 04:16:37;;;;;;;;;;;7.30;68.70;;;;;;5084775;28;19916;-72
2022/03/23 04:19:05;;;;;;;;;;;7.20;68.70;;;;;;5083495;28;19919;-72
2022/03/23 04:21:30;;;;;;;;;;;7.20;68.70;;;;;;5081817;28;19915;-72
2022/03/23 04:23:56;;;;;;;;;;;7.20;68.70;;;;;;5070687;28;19909;-72
2022/03/23 04:26:21;;;;;;;;;;;7.20;68.80;;;;;;5083212;28;19923;-72
2022/03/23 04:28:47;;;;;;;;;;;7.20;68.80;;;;;;5084021;28;20025;-72
2022/03/23 04:31:13;;;;;;;;;;;7.20;68.80;;;;;;5081936;28;19919;-72
2022/03/23 04:33:38;;;;;;;;;;;7.20;68.90;;;;;;5082966;28;19943;-72
2022/03/23 04:36:04;;;;;;;;;;;7.10;68.90;;;;;;5082372;28;19912;-72
2022/03/23 04:38:29;;;;;;;;;;;7.10;68.80;;;;;;5081930;28;19955;-72
2022/03/23 04:40:55;;;;;;;;;;;7.10;68.90;;;;;;5078300;28;20047;-72
2022/03/23 04:43:20;;;;;;;;;;;7.10;68.90;;;;;;5082253;28;19941;-72
2022/03/23 04:45:45;;;;;;;;;;;7.10;68.90;;;;;;5065736;28;20000;-72
2022/03/23 04:48:11;;;;;;;;;;;7.10;68.90;;;;;;5081894;28;19908;-72
2022/03/23 04:50:37;;;;;;;;;;;7.10;68.90;;;;;;5082626;28;20341;-72
2022/03/23 04:53:03;;;;;;;;;;;7.10;69.00;;;;;;5066545;28;19920;-72
2022/03/23 04:55:29;;;;;;;;;;;7.10;69.00;;;;;;5070521;28;20375;-72
2022/03/23 04:57:55;;;;;;;;;;;7.00;68.90;;;;;;5072004;28;19981;-72
2022/03/23 05:00:21;;;;;;;;;;;7.00;68.90;;;;;;5084751;28;19927;-72
2022/03/23 05:02:48;;;;;;;;;;;7.00;69.00;;;;;;5069210;28;19908;-71
2022/03/23 05:05:14;;;;;;;;;;;7.00;69.00;;;;;;5082109;28;19912;-71
2022/03/23 05:07:40;;;;;;;;;;;6.90;69.00;;;;;;5065072;28;19919;-71
2022/03/23 05:10:07;;;;;;;;;;;7.00;69.00;;;;;;5081543;28;19916;-71
2022/03/23 05:12:32;;;;;;;;;;;7.00;69.10;;;;;;5083176;28;19923;-71
2022/03/23 05:14:58;;;;;;;;;;;6.90;69.10;;;;;;5083908;28;19912;-71
2022/03/23 05:17:23;;;;;;;;;;;6.90;69.10;;;;;;5081400;28;20486;-71
2022/03/23 05:19:49;;;;;;;;;;;6.90;69.10;;;;;;5063795;28;19912;-71
2022/03/23 05:22:15;;;;;;;;;;;6.90;69.10;;;;;;5068067;28;19961;-71
2022/03/23 05:24:41;;;;;;;;;;;6.90;69.10;;;;;;5081368;28;19947;-71
2022/03/23 05:27:07;;;;;;;;;;;6.90;69.20;;;;;;5083011;28;19955;-71
2022/03/23 05:29:33;;;;;;;;;;;6.90;69.20;;;;;;5066021;28;20020;-71
2022/03/23 05:31:59;;;;;;;;;;;6.90;69.20;;;;;;5066631;28;20555;-71
2022/03/23 05:34:24;;;;;;;;;;;6.80;69.20;;;;;;5078800;28;19973;-71
2022/03/23 05:36:50;;;;;;;;;;;6.80;69.10;;;;;;5082664;28;19916;-71
2022/03/23 05:39:15;;;;;;;;;;;6.80;69.20;;;;;;5082819;28;20019;-71
2022/03/23 05:41:41;;;;;;;;;;;6.80;69.20;;;;;;5085007;28;19916;-71
2022/03/23 05:44:07;;;;;;;;;;;6.80;69.20;;;;;;5082106;28;19955;-71
2022/03/23 05:46:32;;;;;;;;;;;6.80;69.30;;;;;;5071393;28;20561;-71
2022/03/23 05:48:58;;;;;;;;;;;6.80;69.20;;;;;;5084889;28;19924;-71
2022/03/23 05:51:23;;;;;;;;;;;6.80;69.20;;;;;;5086082;28;19985;-71
2022/03/23 05:53:49;;;;;;;;;;;6.80;69.20;;;;;;5083540;28;19982;-71
2022/03/23 05:56:14;;;;;;;;;;;6.80;69.30;;;;;;5064062;28;19908;-72
2022/03/23 05:58:40;;;;;;;;;;;6.80;69.30;;;;;;5087047;28;19923;-71
2022/03/23 06:01:05;;;;;;;;;;;6.80;69.30;;;;;;5087435;28;20114;-71
2022/03/23 06:03:31;;;;;;;;;;;6.80;69.20;;;;;;5085410;28;19912;-72
2022/03/23 06:05:57;;;;;;;;;;;6.80;69.20;;;;;;5069970;28;19934;-71
2022/03/23 06:08:22;;;;;;;;;;;6.80;69.30;;;;;;5085735;28;19923;-71
2022/03/23 06:10:48;;;;;;;;;;;6.80;69.30;;;;;;5086039;28;20650;-71
2022/03/23 06:13:14;;;;;;;;;;;6.80;69.30;;;;;;5086051;28;19912;-71
2022/03/23 06:15:40;;;;;;;;;;;6.70;69.20;;;;;;5081394;28;20269;-71
2022/03/23 06:18:05;;;;;;;;;;;6.80;69.40;;;;;;5085893;28;19916;-71
2022/03/23 06:20:31;;;;;;;;;;;6.80;69.40;;;;;;5078649;28;19919;-71
2022/03/23 06:22:56;;;;;;;;;;;6.80;69.40;;;;;;5087314;28;20019;-71
2022/03/23 06:25:24;;;;;;;;;;;6.80;69.40;;;;;;5067433;28;20246;-71
2022/03/23 06:27:50;;;;;;;;;;;6.80;69.40;;;;;;5075464;28;20310;-71
2022/03/23 06:30:15;;;;;;;;;;;6.80;69.50;;;;;;5086523;28;19942;-71
2022/03/23 06:32:41;;;;;;;;;;;6.80;69.40;;;;;;5067924;28;19965;-71
2022/03/23 06:35:07;;;;;;;;;;;6.80;69.40;;;;;;5085067;28;20113;-71
2022/03/23 06:37:32;;;;;;;;;;;6.80;69.40;;;;;;5083697;28;20125;-71
2022/03/23 06:39:58;;;;;;;;;;;6.80;69.40;;;;;;5085423;28;19916;-71
2022/03/23 06:42:23;;;;;;;;;;;6.80;69.40;;;;;;5080484;28;19935;-71
2022/03/23 06:44:49;;;;;;;;;;;6.80;69.40;;;;;;5083578;28;20490;-71
2022/03/23 06:47:15;;;;;;;;;;;6.80;69.30;;;;;;5081991;28;19923;-72
2022/03/23 06:49:40;;;;;;;;;;;6.80;69.30;;;;;;5083354;28;19908;-71
2022/03/23 06:52:06;;;;;;;;;;;6.80;69.30;;;;;;5080956;28;20043;-71
2022/03/23 06:54:31;;;;;;;;;;;6.90;69.40;;;;;;5066642;28;19912;-71
2022/03/23 06:56:57;;;;;;;;;;;6.90;69.40;;;;;;5082098;28;20475;-71
2022/03/23 06:59:22;;;;;;;;;;;6.80;69.20;;;;;;5084944;28;20024;-71
2022/03/23 07:01:48;;;;;;;;;;;6.90;69.40;;;;;;5083563;28;19916;-71
2022/03/23 07:04:13;;;;;;;;;;;6.90;69.40;;;;;;5082051;28;19919;-71
2022/03/23 07:06:39;;;;;;;;;;;6.90;69.30;;;;;;5065887;28;19927;-71
2022/03/23 07:11:48;;;;;;;;;;;6.90;69.20;;;;;;5082869;28;20225;-71
2022/03/23 07:14:14;;;;;;;;;;;6.90;69.20;;;;;;5083202;28;19916;-71
2022/03/23 07:16:41;;;;;;;;;;;6.90;69.30;;;;;;5083570;28;19912;-71
2022/03/23 07:19:07;;;;;;;;;;;6.90;69.20;;;;;;5082976;28;19915;-71
2022/03/23 07:21:32;;;;;;;;;;;7.00;69.20;;;;;;5082514;28;20371;-71
2022/03/23 07:23:58;;;;;;;;;;;7.00;69.90;;;;;;5064782;28;19956;-71
2022/03/23 07:26:24;;;;;;;;;;;7.00;69.20;;;;;;5082967;28;19917;-71
2022/03/23 07:28:49;;;;;;;;;;;7.00;69.20;;;;;;5083234;28;20015;-72
2022/03/23 07:31:15;;;;;;;;;;;7.00;69.10;;;;;;5082667;28;20105;-71
2022/03/23 07:33:40;;;;;;;;;;;7.10;69.20;;;;;;5063143;28;19923;-71
2022/03/23 07:36:06;;;;;;;;;;;7.10;69.00;;;;;;5082686;28;19912;-71
2022/03/23 07:38:31;;;;;;;;;;;7.20;69.00;;;;;;5083336;28;19913;-71
2022/03/23 07:40:57;;;;;;;;;;;7.20;68.80;;;;;;5082526;28;19911;-72
2022/03/23 07:43:22;;;;;;;;;;;7.20;68.70;;;;;;5083829;28;20019;-72
2022/03/23 07:45:48;;;;;;;;;;;7.30;68.70;;;;;;5084146;28;20394;-71
2022/03/23 07:48:15;;;;;;;;;;;7.30;68.60;;;;;;5062624;28;19912;-71
2022/03/23 07:50:41;;;;;;;;;;;7.40;68.70;;;;;;5065381;28;20616;-71
2022/03/23 07:53:06;;;;;;;;;;;7.50;68.60;;;;;;5082667;28;19987;-71
2022/03/23 07:55:32;;;;;;;;;;;7.50;68.30;;;;;;5082130;28;19916;-71
2022/03/23 07:57:57;;;;;;;;;;;7.70;68.30;;;;;;5084360;28;19912;-71
2022/03/23 08:00:23;;;;;;;;;;;7.70;68.10;;;;;;5081812;28;19975;-72
2022/03/23 08:02:50;;;;;;;;;;;7.80;67.90;;;;;;5068714;28;19951;-71
2022/03/23 08:05:16;;;;;;;;;;;7.80;67.80;;;;;;5081635;28;20011;-71
2022/03/23 08:07:41;;;;;;;;;;;7.90;67.60;;;;;;5082701;28;19916;-71
2022/03/23 08:10:07;;;;;;;;;;;8.00;67.50;;;;;;5066340;28;19908;-71
2022/03/23 08:12:32;;;;;;;;;;;8.10;67.30;;;;;;5081593;28;20742;-71
2022/03/23 08:14:58;;;;;;;;;;;8.20;67.50;;;;;;5080906;28;19971;-71
2022/03/23 08:17:23;;;;;;;;;;;8.30;67.60;;;;;;5081930;28;19920;-71
2022/03/23 08:20:32;;;;;;;;;;;8.40;67.40;;;;;;5082059;28;19965;-71
2022/03/23 08:22:34;;;;;;;;;;;8.50;67.30;;;;;;5080133;28;20494;-71
2022/03/23 08:25:00;;;;;;;;;;;8.70;66.90;;;;;;5081332;28;19916;-71
2022/03/23 08:27:25;;;;;;;;;;;8.70;66.00;;;;;;5081361;28;20034;-71
2022/03/23 08:29:52;;;;;;;;;;;8.80;66.30;;;;;;5082177;28;19923;-71
2022/03/23 08:32:17;;;;;;;;;;;8.90;65.90;;;;;;5081620;28;19916;-71
2022/03/23 08:34:43;;;;;;;;;;;9.00;66.00;;;;;;5081850;28;19930;-71
2022/03/23 08:37:08;;;;;;;;;;;9.10;65.60;;;;;;5064396;28;19934;-71
2022/03/23 08:39:34;;;;;;;;;;;9.20;65.20;;;;;;5083698;28;19955;-71
2022/03/23 08:41:59;;;;;;;;;;;9.30;65.00;;;;;;5083374;28;20352;-71
2022/03/23 08:44:25;;;;;;;;;;;9.30;64.80;;;;;;5067711;28;19916;-71
2022/03/23 08:46:50;;;;;;;;;;;9.40;64.60;;;;;;5082184;28;19915;-71
2022/03/23 08:49:16;;;;;;;;;;;9.50;64.50;;;;;;5068935;28;20004;-71
2022/03/23 08:51:41;;;;;;;;;;;9.50;64.40;;;;;;5083816;28;19919;-71
2022/03/23 08:54:06;;;;;;;;;;;9.60;64.30;;;;;;5067517;28;19912;-71
2022/03/23 08:56:32;;;;;;;;;;;9.70;64.30;;;;;;5080409;28;20395;-71
2022/03/23 08:58:58;;;;;;;;;;;9.70;64.00;;;;;;5068073;28;19965;-71
2022/03/23 09:01:24;;;;;;;;;;;9.80;64.00;;;;;;5083347;28;20026;-71
2022/03/23 09:03:49;;;;;;;;;;;9.80;64.00;;;;;;5070117;28;19990;-71
2022/03/23 09:06:15;;;;;;;;;;;9.90;64.00;;;;;;5083312;28;20402;-71
2022/03/23 09:08:41;;;;;;;;;;;10.00;63.90;;;;;;5064823;28;19919;-71
2022/03/23 09:11:06;;;;;;;;;;;10.00;63.90;;;;;;5079367;28;20506;-71
2022/03/23 09:13:32;;;;;;;;;;;10.10;64.40;;;;;;5079961;28;19912;-71
2022/03/23 09:15:57;;;;;;;;;;;10.10;64.10;;;;;;5086512;28;19911;-71
2022/03/23 09:18:26;;;;;;;;;;;10.20;63.70;;;;;;5086016;28;19947;-71
2022/03/23 09:20:52;;;;;;;;;;;10.20;63.80;;;;;;5066077;28;19919;-71
2022/03/23 09:23:17;;;;;;;;;;;10.30;63.80;;;;;;5085710;28;19912;-71
2022/03/23 09:25:43;;;;;;;;;;;10.30;63.50;;;;;;5085742;28;19924;-71
2022/03/23 09:28:09;;;;;;;;;;;10.30;63.50;;;;;;5086061;28;19916;-71
2022/03/23 09:30:35;;;;;;;;;;;10.30;63.50;;;;;;5081006;28;19908;-71
2022/03/23 09:33:01;;;;;;;;;;;10.40;63.50;;;;;;5071930;28;19920;-71
2022/03/23 09:35:27;;;;;;;;;;;10.40;63.60;;;;;;5085382;28;19923;-71
2022/03/23 09:37:53;;;;;;;;;;;10.40;63.90;;;;;;5085680;28;19916;-71
2022/03/23 09:40:18;;;;;;;;;;;10.50;63.60;;;;;;5086526;28;19944;-71
2022/03/23 09:42:44;;;;;;;;;;;10.50;63.50;;;;;;5085211;28;19912;-71
2022/03/23 09:45:20;;;;;;;;;;;10.60;63.50;;;;;;5086095;28;19919;-71
2022/03/23 09:47:45;;;;;;;;;;;10.60;63.70;;;;;;5083749;28;19909;-71
2022/03/23 09:50:11;;;;;;;;;;;10.70;63.90;;;;;;5071884;28;19993;-70
2022/03/23 09:52:38;;;;;;;;;;;10.70;64.20;;;;;;5082353;28;19920;-71
2022/03/23 09:55:04;;;;;;;;;;;10.70;63.90;;;;;;5086838;28;19920;-71
2022/03/23 09:57:30;;;;;;;;;;;10.80;63.60;;;;;;5074083;28;20284;-70
2022/03/23 09:59:55;;;;;;;;;;;10.80;64.00;;;;;;5083684;28;19915;-70
2022/03/23 10:02:39;;;;;;;;;;;10.90;63.80;;;;;;5074779;28;19919;-70
2022/03/23 10:05:14;;;;;;;;;;;10.90;63.80;;;;;;5087957;28;20361;-70
2022/03/23 10:07:55;;;;;;;;;;;10.90;63.50;;;;;;5081307;28;20527;-70
2022/03/23 10:10:30;;;;;;;;;;;11.00;63.40;;;;;;5086201;28;20344;-70
2022/03/23 10:13:04;;;;;;;;;;;11.00;63.50;;;;;;5086002;28;19919;-70
2022/03/23 10:15:32;;;;;;;;;;;11.10;63.20;;;;;;5087679;28;19920;-70
2022/03/23 10:18:04;;;;;;;;;;;11.10;63.20;;;;;;5085791;28;19908;-70
2022/03/23 10:20:29;;;;;;;;;;;11.20;62.90;;;;;;5082887;28;19924;-70
2022/03/23 10:22:55;;;;;;;;;;;11.20;63.10;;;;;;5084924;28;20292;-70
2022/03/23 10:25:26;;;;;;;;;;;11.20;62.70;;;;;;5065127;28;19915;-70
2022/03/23 10:27:52;;;;;;;;;;;11.30;62.50;;;;;;5086653;28;20024;-70
2022/03/23 10:30:18;;;;;;;;;;;11.30;62.30;;;;;;5077967;28;19989;-70
2022/03/23 10:32:43;;;;;;;;;;;11.40;61.60;;;;;;5084651;28;19912;-70
2022/03/23 10:35:13;;;;;;;;;;;11.40;61.30;;;;;;5069331;28;19932;-70
2022/03/23 10:37:39;;;;;;;;;;;11.50;61.70;;;;;;5084952;28;21778;-70
2022/03/23 10:40:07;;;;;;;;;;;11.50;61.60;;;;;;5084788;28;19987;-70
2022/03/23 10:42:34;;;;;;;;;;;11.60;61.30;;;;;;5083262;28;19908;-70
2022/03/23 10:45:09;;;;;;;;;;;11.60;61.60;;;;;;5070004;28;19912;-70
2022/03/23 10:47:35;;;;;;;;;;;11.70;61.20;;;;;;5078247;28;19908;-70
2022/03/23 10:50:12;;;;;;;;;;;11.80;61.20;;;;;;5086222;28;20357;-70
2022/03/23 10:52:51;;;;;;;;;;;11.80;61.10;;;;;;5081694;28;19927;-69
2022/03/23 10:55:17;;;;;;;;;;;11.90;61.00;;;;;;5083624;28;19924;-69
2022/03/23 11:00:46;;;;;;;;;;;12.10;60.70;;;;;;5085519;28;19927;-69
2022/03/23 11:03:11;;;;;;;;;;;12.30;60.70;;;;;;5084762;28;19912;-69
2022/03/23 11:05:38;;;;;;;;;;;12.40;59.70;;;;;;5083818;28;19912;-69
2022/03/23 11:08:14;;;;;;;;;;;12.50;59.70;;;;;;5082906;28;19923;-69
2022/03/23 11:16:13;;;;;;;;;;;12.90;59.50;;;;;;5085569;28;19918;-69
2022/03/23 11:18:39;;;;;;;;;;;13.00;59.90;;;;;;5084700;28;20016;-69
2022/03/23 11:21:05;;;;;;;;;;;13.20;60.00;;;;;;5084339;28;20333;-70
2022/03/23 11:23:33;;;;;;;;;;;13.30;60.10;;;;;;5064717;28;19926;-69
2022/03/23 11:26:07;;;;;;;;;;;13.50;60.30;;;;;;5083013;28;20072;-69
2022/03/23 11:28:35;;;;;;;;;;;13.60;60.30;;;;;;5082392;28;19912;-69
2022/03/23 11:31:05;;;;;;;;;;;13.80;60.30;;;;;;5083511;28;19943;-69
2022/03/23 11:33:34;;;;;;;;;;;13.90;60.10;;;;;;5080982;28;20658;-69
2022/03/23 11:36:01;;;;;;;;;;;14.00;60.10;;;;;;5082094;28;19920;-70
2022/03/23 11:38:26;;;;;;;;;;;14.20;59.90;;;;;;5079933;28;19965;-69
2022/03/23 11:40:52;;;;;;;;;;;14.30;59.90;;;;;;5079201;28;19920;-69
2022/03/23 11:43:19;;;;;;;;;;;14.40;59.10;;;;;;5065398;28;19908;-70
2022/03/23 11:45:45;;;;;;;;;;;14.50;60.00;;;;;;5082983;28;19969;-69
2022/03/23 11:48:16;;;;;;;;;;;14.70;59.40;;;;;;5072695;28;20034;-70
2022/03/23 11:50:41;;;;;;;;;;;14.70;59.40;;;;;;5083742;28;19912;-70
2022/03/23 11:53:10;;;;;;;;;;;14.90;59.30;;;;;;5084450;28;19919;-69
2022/03/23 11:55:37;;;;;;;;;;;14.90;59.20;;;;;;5068868;28;20010;-69
2022/03/23 11:58:03;;;;;;;;;;;15.00;59.10;;;;;;5072598;28;20050;-69
2022/03/23 12:00:29;;;;;;;;;;;15.10;59.20;;;;;;5084927;28;20014;-69
2022/03/23 12:02:54;;;;;;;;;;;15.20;59.30;;;;;;5084860;28;19916;-69
2022/03/23 12:05:29;;;;;;;;;;;15.30;59.20;;;;;;5084425;28;19915;-65
2022/03/23 12:07:55;;;;;;;;;;;15.30;59.30;;;;;;5081559;28;19931;-65
2022/03/23 12:10:21;;;;;;;;;;;15.40;59.40;;;;;;5082499;28;19909;-65
2022/03/23 12:12:47;;;;;;;;;;;15.50;59.50;;;;;;5068016;28;20061;-65
2022/03/23 12:15:22;;;;;;;;;;;15.50;59.20;;;;;;5082368;28;20003;-65
2022/03/23 12:18:07;;;;;;;;;;;15.60;59.40;;;;;;5067424;28;19916;-65
2022/03/23 12:20:37;;;;;;;;;;;15.70;59.30;;;;;;5077858;28;20027;-65
2022/03/23 12:23:10;;;;;;;;;;;15.70;59.50;;;;;;5083493;28;19912;-65
2022/03/23 12:25:40;;;;;;;;;;;15.80;59.40;;;;;;5082390;28;19914;-65
2022/03/23 12:28:26;;;;;;;;;;;15.90;58.60;;;;;;5082805;28;19912;-65
2022/03/23 12:30:57;;;;;;;;;;;15.90;59.30;;;;;;5039078;28;19915;-65
2022/03/23 12:33:31;;;;;;;;;;;16.00;59.10;;;;;;5080590;28;20313;-65
2022/03/23 12:36:04;;;;;;;;;;;16.00;59.30;;;;;;5085099;28;19920;-65
2022/03/23 12:38:29;;;;;;;;;;;16.00;59.60;;;;;;5071663;28;19912;-65
2022/03/23 12:40:57;;;;;;;;;;;16.00;59.30;;;;;;5084267;28;19915;-65
2022/03/23 12:43:52;;;;;;;;;;;16.10;59.70;;;;;;5083441;28;19935;-65
2022/03/23 12:46:19;;;;;;;;;;;16.10;59.60;;;;;;5058619;28;19916;-65
2022/03/23 13:00:09;;;;;;;;;;;16.30;58.40;;;;;;5084831;28;20312;-65
2022/03/23 13:02:35;;;;;;;;;;;16.40;57.60;;;;;;5086917;28;19957;-65
2022/03/23 13:05:04;;;;;;;;;;;16.40;58.60;;;;;;5089330;28;20003;-65
2022/03/23 13:07:29;;;;;;;;;;;16.40;58.50;;;;;;5087180;28;20226;-65
2022/03/23 13:09:55;;;;;;;;;;;16.40;58.40;;;;;;5070279;28;19920;-66
2022/03/23 13:12:27;;;;;;;;;;;16.50;57.70;;;;;;5086349;28;19920;-67
2022/03/23 13:14:52;;;;;;;;;;;16.60;56.70;;;;;;5087022;28;19923;-67
2022/03/23 13:17:19;;;;;;;;;;;16.70;53.30;;;;;;5088336;28;20018;-68
2022/03/23 13:19:44;;;;;;;;;;;16.70;52.40;;;;;;5087754;28;20824;-68
2022/03/23 13:22:10;;;;;;;;;;;16.90;51.20;;;;;;5082671;28;19942;-67
2022/03/23 13:24:35;;;;;;;;;;;16.90;49.40;;;;;;5084306;28;20404;-68
2022/03/23 13:27:10;;;;;;;;;;;17.00;48.90;;;;;;5086674;28;20526;-67
2022/03/23 13:29:35;;;;;;;;;;;17.00;49.90;;;;;;5076880;28;20512;-75
2022/03/23 13:32:04;;;;;;;;;;;17.00;49.40;;;;;;5087203;28;19961;-72
2022/03/23 13:34:34;;;;;;;;;;;17.00;50.10;;;;;;5086849;28;19928;-67
2022/03/23 13:37:00;;;;;;;;;;;17.20;51.50;;;;;;5086031;28;19943;-66
2022/03/23 13:39:25;;;;;;;;;;;17.40;52.40;;;;;;5084147;28;20383;-64
2022/03/23 13:47:46;;;;;;;;;;;17.80;51.70;;;;;;5084433;28;20420;-65
2022/03/23 13:50:12;;;;;;;;;;;18.00;51.10;;;;;;5084582;28;19909;-67
2022/03/23 13:52:38;;;;;;;;;;;18.10;50.40;;;;;;5088112;28;20006;-65
2022/03/23 13:55:04;;;;;;;;;;;18.10;50.80;;;;;;5086130;28;20484;-66
2022/03/23 13:57:31;;;;;;;;;;;18.20;51.40;;;;;;5087297;28;19911;-69
2022/03/23 13:59:57;;;;;;;;;;;18.20;51.80;;;;;;5087291;28;19920;-68
2022/03/23 14:02:23;;;;;;;;;;;18.30;51.30;;;;;;5072635;28;19917;-67
2022/03/23 14:04:48;;;;;;;;;;;18.30;50.80;;;;;;5084289;28;19912;-67
2022/03/23 14:07:14;;;;;;;;;;;18.20;48.70;;;;;;5082653;28;19939;-65
2022/03/23 14:09:40;;;;;;;;;;;18.30;49.50;;;;;;5070390;28;20260;-65
2022/03/23 14:12:09;;;;;;;;;;;18.30;49.30;;;;;;5078423;28;19912;-65
2022/03/23 14:14:36;;;;;;;;;;;18.30;48.80;;;;;;5087636;28;19958;-64
2022/03/23 14:17:23;;;;;;;;;;;18.40;49.70;;;;;;5086628;28;19912;-67
2022/03/23 14:19:51;;;;;;;;;;;18.60;49.30;;;;;;5086069;28;19927;-65
2022/03/23 14:22:16;;;;;;;;;;;18.60;49.30;;;;;;5085343;28;19917;-65
2022/03/23 14:24:42;;;;;;;;;;;18.60;48.60;;;;;;5085239;28;20533;-67
2022/03/23 14:27:11;;;;;;;;;;;18.60;47.60;;;;;;5084624;28;19908;-69
2022/03/23 14:29:37;;;;;;;;;;;18.60;48.30;;;;;;5086539;28;19996;-67
2022/03/23 14:32:03;;;;;;;;;;;18.60;47.40;;;;;;5082093;28;20225;-70
2022/03/23 14:34:31;;;;;;;;;;;18.50;48.20;;;;;;5087316;28;20423;-70
2022/03/23 14:37:09;;;;;;;;;;;18.50;48.90;;;;;;5086017;28;20011;-68
2022/03/23 14:39:39;;;;;;;;;;;18.50;49.30;;;;;;5076533;28;20269;-69
2022/03/23 14:42:07;;;;;;;;;;;18.40;48.70;;;;;;5085644;28;19920;-67
2022/03/23 14:44:36;;;;;;;;;;;18.30;50.20;;;;;;5088180;28;19924;-67
2022/03/23 14:47:02;;;;;;;;;;;18.30;50.00;;;;;;5082564;28;20003;-67
2022/03/23 14:49:36;;;;;;;;;;;18.30;50.20;;;;;;5082909;28;19951;-67
2022/03/23 14:52:03;;;;;;;;;;;18.30;50.60;;;;;;5078438;28;20019;-67
2022/03/23 14:54:28;;;;;;;;;;;18.30;50.60;;;;;;5075011;28;19916;-67
2022/03/23 14:56:54;;;;;;;;;;;18.20;50.50;;;;;;5074398;28;19931;-67
2022/03/23 14:59:21;;;;;;;;;;;18.20;50.70;;;;;;5086260;28;20006;-67
2022/03/23 15:01:48;;;;;;;;;;;18.30;49.90;;;;;;5085433;28;19908;-67
2022/03/23 15:04:14;;;;;;;;;;;18.30;50.60;;;;;;5084094;28;20397;-67